createdAt,value
2018-09-06T00:14:55.358Z,20.13
2018-09-06T00:35:35.547Z,19.50
2018-09-06T00:56:16.962Z,20.03
2018-09-06T01:17:00.222Z,16.33
2018-09-06T01:37:37.338Z,16.53
2018-09-06T01:58:16.299Z,21.83
2018-09-06T02:18:58.022Z,26.93
2018-09-06T02:39:41.284Z,18.47
2018-09-06T03:00:24.851Z,19.30
2018-09-06T03:21:06.879Z,18.10
2018-09-06T03:41:48.299Z,17.90
2018-09-06T04:02:27.564Z,19.40
2018-09-06T04:23:07.749Z,19.93
2018-09-06T04:43:47.053Z,20.57
2018-09-06T05:04:29.425Z,18.20
2018-09-06T05:25:12.614Z,19.47
2018-09-06T05:45:59.872Z,28.90
2018-09-06T06:06:42.209Z,20.00
2018-09-06T06:27:20.566Z,20.83
2018-09-06T06:48:03.816Z,24.30
2018-09-06T07:08:42.156Z,20.70
2018-09-06T07:29:23.578Z,20.30
2018-09-06T07:49:59.970Z,34.67
2018-09-06T08:10:39.306Z,58.57
2018-09-06T08:31:19.284Z,47.87
2018-09-06T08:52:03.839Z,40.53
2018-09-06T09:12:43.901Z,32.87
2018-09-06T09:33:25.007Z,23.10
2018-09-06T09:54:04.272Z,20.00
2018-09-06T10:14:46.612Z,19.97
2018-09-06T10:35:32.086Z,21.50
2018-09-06T10:56:14.657Z,19.07
2018-09-06T11:16:56.865Z,14.53
2018-09-06T11:37:36.242Z,12.77
2018-09-06T11:58:19.227Z,18.30
2018-09-06T12:18:58.491Z,17.70
2018-09-06T12:39:39.908Z,22.93
2018-09-06T13:00:17.020Z,24.30
2018-09-06T13:20:58.442Z,29.63
2018-09-06T13:41:42.621Z,27.83
2018-09-06T14:02:28.958Z,33.90
2018-09-06T14:23:11.292Z,31.27
2018-09-06T14:43:52.803Z,28.97
2018-09-06T15:04:32.897Z,16.43
2018-09-06T15:25:16.770Z,11.90
2018-09-06T15:45:59.418Z,16.27
2018-09-06T16:06:38.685Z,15.20
2018-09-06T16:27:17.949Z,14.10
2018-09-06T16:48:02.436Z,15.07
2018-09-06T17:08:41.712Z,12.73
2018-09-06T17:29:18.822Z,12.97
2018-09-06T17:50:01.160Z,22.53
2018-09-06T18:10:45.699Z,21.13
2018-09-06T18:31:26.985Z,10.93
2018-09-06T18:52:06.943Z,11.70
2018-09-06T19:12:42.216Z,11.60
2018-09-06T19:33:20.563Z,14.67
2018-09-06T19:54:01.031Z,17.30
2018-09-06T20:14:45.353Z,17.10
2018-09-06T20:35:22.355Z,20.63
2018-09-06T20:56:04.691Z,14.20
2018-09-06T21:16:44.883Z,12.30
2018-09-06T21:37:25.072Z,20.50
2018-09-06T21:58:06.489Z,21.63
2018-09-06T22:36:52.782Z,14.03
2018-09-06T22:57:40.129Z,26.27
2018-09-06T23:18:19.164Z,19.47
2018-09-06T23:39:02.426Z,21.97
2018-09-06T23:59:41.694Z,29.13
